createdAt,value
2018-05-23T00:00:06.434Z,20.70
2018-05-23T00:02:33.908Z,20.70
2018-05-23T00:05:01.402Z,20.70
2018-05-23T00:07:28.853Z,20.70
2018-05-23T00:09:57.075Z,20.70
2018-05-23T00:12:24.546Z,20.70
2018-05-23T00:14:51.984Z,20.60
2018-05-23T00:17:19.471Z,20.60
2018-05-23T00:19:46.931Z,20.60
2018-05-23T00:22:14.411Z,20.60
2018-05-23T00:24:42.630Z,20.60
2018-05-23T00:27:10.120Z,20.60
2018-05-23T00:29:37.559Z,20.60
2018-05-23T00:32:05.063Z,20.60
2018-05-23T00:34:32.543Z,20.60
2018-05-23T00:37:00.025Z,20.50
2018-05-23T00:39:27.510Z,20.40
2018-05-23T00:41:54.964Z,20.40
2018-05-23T00:44:22.445Z,20.40
2018-05-23T00:46:49.902Z,20.40
2018-05-23T00:49:18.154Z,20.50
2018-05-23T00:51:45.627Z,20.50
2018-05-23T00:54:13.866Z,20.50
2018-05-23T00:56:42.145Z,20.50
2018-05-23T00:59:09.628Z,20.50
2018-05-23T01:01:37.847Z,20.50
2018-05-23T01:04:05.431Z,20.40
2018-05-23T01:06:32.884Z,20.40
2018-05-23T01:09:00.320Z,20.40
2018-05-23T01:11:27.795Z,20.40
2018-05-23T01:13:55.262Z,20.30
2018-05-23T01:16:22.726Z,20.30
2018-05-23T01:18:50.195Z,20.30
2018-05-23T01:21:18.432Z,20.20
2018-05-23T01:23:45.884Z,20.20
2018-05-23T01:26:13.350Z,20.20
2018-05-23T01:28:40.802Z,20.20
2018-05-23T01:31:08.369Z,20.20
2018-05-23T01:33:35.932Z,20.20
2018-05-23T01:36:03.483Z,20.30
2018-05-23T01:38:30.943Z,20.30
2018-05-23T01:40:59.218Z,20.20
2018-05-23T01:43:26.657Z,20.20
2018-05-23T01:45:54.111Z,20.20
2018-05-23T01:48:21.583Z,20.20
2018-05-23T01:50:49.042Z,20.20
2018-05-23T01:53:16.603Z,20.10
2018-05-23T01:55:44.066Z,20.10
2018-05-23T01:58:11.541Z,20.20
2018-05-23T02:00:39.767Z,20.40
2018-05-23T02:03:07.251Z,20.40
2018-05-23T02:05:34.698Z,20.50
2018-05-23T02:08:02.186Z,20.50
2018-05-23T02:10:29.617Z,20.60
2018-05-23T02:12:57.089Z,20.60
2018-05-23T02:15:24.525Z,20.60
2018-05-23T02:17:52.026Z,20.60
2018-05-23T02:20:19.500Z,20.50
2018-05-23T02:22:46.966Z,20.60
2018-05-23T02:25:14.449Z,20.60
2018-05-23T02:27:41.907Z,20.60
2018-05-23T02:30:09.388Z,20.50
2018-05-23T02:32:37.636Z,20.40
2018-05-23T02:35:05.102Z,20.30
2018-05-23T02:37:32.542Z,20.30
2018-05-23T02:40:00.045Z,20.30
2018-05-23T02:42:27.524Z,20.40
2018-05-23T02:44:54.996Z,20.50
2018-05-23T02:47:22.448Z,20.50
2018-05-23T02:49:49.929Z,20.50
2018-05-23T02:52:17.374Z,20.50
2018-05-23T02:54:44.836Z,20.60
2018-05-23T02:57:12.298Z,20.50
2018-05-23T02:59:39.742Z,20.60
2018-05-23T03:02:07.222Z,20.50
2018-05-23T03:04:34.699Z,20.50
2018-05-23T03:07:02.946Z,20.40
2018-05-23T03:09:30.422Z,20.40
2018-05-23T03:11:57.910Z,20.40
2018-05-23T03:14:25.358Z,20.30
2018-05-23T03:16:53.699Z,20.30
2018-05-23T03:19:21.319Z,20.30
2018-05-23T03:21:48.781Z,20.30
2018-05-23T03:24:16.233Z,20.30
2018-05-23T03:26:43.724Z,20.40
2018-05-23T03:29:11.187Z,20.40
2018-05-23T03:31:38.683Z,20.40
2018-05-23T03:34:06.154Z,20.40
2018-05-23T03:36:33.613Z,20.40
2018-05-23T03:39:01.090Z,20.40
2018-05-23T03:41:28.540Z,20.40
2018-05-23T03:43:56.046Z,20.40
2018-05-23T03:46:24.265Z,20.30
2018-05-23T03:48:51.737Z,20.30
2018-05-23T03:51:19.313Z,20.20
2018-05-23T03:53:47.530Z,20.20
2018-05-23T03:56:15.013Z,20.10
2018-05-23T03:58:42.460Z,20.10
2018-05-23T04:01:21.852Z,20.00
2018-05-23T04:04:01.743Z,19.80
2018-05-23T04:06:50.129Z,19.80
2018-05-23T04:09:17.605Z,19.70
2018-05-23T04:11:45.870Z,19.50
2018-05-23T04:14:13.341Z,19.50
2018-05-23T04:16:41.726Z,19.50
2018-05-23T04:19:09.974Z,19.50
2018-05-23T04:21:37.428Z,19.50
2018-05-23T04:24:04.922Z,19.60
2018-05-23T04:26:33.130Z,19.80
2018-05-23T04:29:00.611Z,19.80
2018-05-23T04:31:28.051Z,19.80
2018-05-23T04:33:57.144Z,19.80
2018-05-23T04:36:24.604Z,19.80
2018-05-23T04:38:52.082Z,19.80
2018-05-23T04:41:19.536Z,19.80
2018-05-23T04:43:47.049Z,19.70
2018-05-23T04:46:14.499Z,19.60
2018-05-23T04:48:41.963Z,19.60
2018-05-23T04:51:09.444Z,19.60
2018-05-23T04:53:36.902Z,19.70
2018-05-23T04:56:04.378Z,19.70
2018-05-23T04:58:32.598Z,19.70
2018-05-23T05:01:00.102Z,19.70
2018-05-23T05:03:27.606Z,19.70
2018-05-23T05:05:55.115Z,19.70
2018-05-23T05:08:22.674Z,19.60
2018-05-23T05:10:50.139Z,19.60
2018-05-23T05:13:17.585Z,19.60
2018-05-23T05:15:45.798Z,19.70
2018-05-23T05:18:13.318Z,19.70
2018-05-23T05:20:42.297Z,19.70
2018-05-23T05:23:09.743Z,19.70
2018-05-23T05:25:37.229Z,19.70
2018-05-23T05:28:04.698Z,19.70
2018-05-23T05:30:32.963Z,19.80
2018-05-23T05:33:00.572Z,19.80
2018-05-23T05:35:28.026Z,19.90
2018-05-23T05:37:55.510Z,19.90
2018-05-23T05:40:23.051Z,19.90
2018-05-23T05:42:50.543Z,20.00
2018-05-23T05:45:18.002Z,20.00
2018-05-23T05:47:45.473Z,20.00
2018-05-23T05:50:13.707Z,19.90
2018-05-23T05:52:41.194Z,19.90
2018-05-23T05:55:08.682Z,19.90
2018-05-23T05:57:36.139Z,19.80
2018-05-23T06:00:03.618Z,19.80
2018-05-23T06:02:31.083Z,19.80
2018-05-23T06:04:58.559Z,19.70
2018-05-23T06:07:26.050Z,19.60
2018-05-23T06:09:54.347Z,19.50
2018-05-23T06:12:21.766Z,19.40
2018-05-23T06:14:49.238Z,19.40
2018-05-23T06:17:17.540Z,19.30
2018-05-23T06:19:44.985Z,19.30
2018-05-23T06:22:13.226Z,19.30
2018-05-23T06:24:40.696Z,19.30
2018-05-23T06:27:08.963Z,19.20
2018-05-23T06:29:36.425Z,19.20
2018-05-23T06:32:04.791Z,19.30
2018-05-23T06:34:32.286Z,19.20
2018-05-23T06:36:59.760Z,19.30
2018-05-23T06:39:27.267Z,19.20
2018-05-23T06:41:54.802Z,19.20
2018-05-23T06:44:22.290Z,19.20
2018-05-23T06:46:50.509Z,19.30
2018-05-23T06:49:17.986Z,19.20
2018-05-23T06:51:45.455Z,19.30
2018-05-23T06:54:13.733Z,19.30
2018-05-23T06:56:41.178Z,19.30
2018-05-23T06:59:08.657Z,19.30
2018-05-23T07:01:36.119Z,19.30
2018-05-23T07:04:04.396Z,19.30
2018-05-23T07:06:32.623Z,19.30
2018-05-23T07:09:00.073Z,19.30
2018-05-23T07:11:27.552Z,19.40
2018-05-23T07:13:55.033Z,19.40
2018-05-23T07:16:22.518Z,19.40
2018-05-23T07:18:49.976Z,19.40
2018-05-23T07:21:17.489Z,19.40
2018-05-23T07:23:44.950Z,19.40
2018-05-23T07:26:12.423Z,19.40
2018-05-23T07:28:40.651Z,19.50
2018-05-23T07:31:08.146Z,19.40
2018-05-23T07:33:35.615Z,19.50
2018-05-23T07:36:04.703Z,19.50
2018-05-23T07:38:32.245Z,19.50
2018-05-23T07:40:59.769Z,19.60
2018-05-23T07:43:27.219Z,19.60
2018-05-23T07:45:54.770Z,19.70
2018-05-23T07:48:22.170Z,19.70
2018-05-23T07:50:49.609Z,19.70
2018-05-23T07:53:17.086Z,19.80
2018-05-23T07:55:44.538Z,19.90
2018-05-23T07:58:12.031Z,19.90
2018-05-23T08:00:40.243Z,20.00
2018-05-23T08:03:07.731Z,20.00
2018-05-23T08:05:35.290Z,20.10
2018-05-23T08:08:02.749Z,20.10
2018-05-23T08:10:30.223Z,20.10
2018-05-23T08:12:58.462Z,20.20
2018-05-23T08:15:25.905Z,20.20
2018-05-23T08:17:53.383Z,20.20
2018-05-23T08:20:20.991Z,20.20
2018-05-23T08:22:48.462Z,20.20
2018-05-23T08:25:15.968Z,20.20
2018-05-23T08:27:44.222Z,20.30
2018-05-23T08:30:11.675Z,20.30
2018-05-23T08:32:39.175Z,20.30
2018-05-23T08:35:07.450Z,20.40
2018-05-23T08:37:34.978Z,20.40
2018-05-23T08:40:02.472Z,20.50
2018-05-23T08:42:30.730Z,20.60
2018-05-23T08:44:58.971Z,20.70
2018-05-23T08:47:26.548Z,20.70
2018-05-23T08:49:54.016Z,20.80
2018-05-23T08:52:21.473Z,20.80
2018-05-23T08:54:48.954Z,20.80
2018-05-23T08:57:16.414Z,20.90
2018-05-23T08:59:43.904Z,20.90
2018-05-23T09:02:11.348Z,20.90
2018-05-23T09:04:38.858Z,20.90
2018-05-23T09:07:06.325Z,20.90
2018-05-23T09:09:34.600Z,20.90
2018-05-23T09:12:02.851Z,20.90
2018-05-23T09:14:31.090Z,20.90
2018-05-23T09:16:58.563Z,20.90
2018-05-23T09:19:26.034Z,21.00
2018-05-23T09:21:53.498Z,20.90
2018-05-23T09:24:20.956Z,20.90
2018-05-23T09:26:48.433Z,20.90
2018-05-23T09:29:16.657Z,20.90
2018-05-23T09:31:44.170Z,20.90
2018-05-23T09:34:12.382Z,20.90
2018-05-23T09:36:39.852Z,20.90
2018-05-23T09:39:07.382Z,20.90
2018-05-23T09:41:35.618Z,21.00
2018-05-23T09:44:03.106Z,21.00
2018-05-23T09:46:30.605Z,21.00
2018-05-23T09:48:58.871Z,21.10
2018-05-23T09:51:26.328Z,21.00
2018-05-23T09:53:53.815Z,21.10
2018-05-23T09:56:22.067Z,21.20
2018-05-23T09:58:49.543Z,21.20
2018-05-23T10:01:17.010Z,21.20
2018-05-23T10:03:45.256Z,21.30
2018-05-23T10:06:12.714Z,21.30
2018-05-23T10:08:41.718Z,21.20
2018-05-23T10:11:09.210Z,21.30
2018-05-23T10:13:37.453Z,21.30
2018-05-23T10:16:04.911Z,21.30
2018-05-23T10:18:32.378Z,21.40
2018-05-23T10:21:00.634Z,21.50
2018-05-23T10:23:28.095Z,21.50
2018-05-23T10:25:55.612Z,21.50
2018-05-23T10:28:23.117Z,21.60
2018-05-23T10:30:51.355Z,21.70
2018-05-23T10:33:18.828Z,21.60
2018-05-23T10:35:46.303Z,21.60
2018-05-23T10:38:13.789Z,21.70
2018-05-23T10:40:41.330Z,21.70
2018-05-23T10:43:08.782Z,21.70
2018-05-23T10:45:37.003Z,21.90
2018-05-23T10:48:04.497Z,21.90
2018-05-23T10:50:31.955Z,22.00
2018-05-23T10:52:59.439Z,22.10
2018-05-23T10:55:27.664Z,22.30
2018-05-23T10:57:55.138Z,22.30
2018-05-23T11:00:22.587Z,22.30
2018-05-23T11:02:50.256Z,22.40
2018-05-23T11:05:18.534Z,22.40
2018-05-23T11:07:46.102Z,22.40
2018-05-23T11:10:13.666Z,22.50
2018-05-23T11:12:41.932Z,22.70
2018-05-23T11:15:09.389Z,22.70
2018-05-23T11:17:36.871Z,22.90
2018-05-23T11:20:05.082Z,23.20
2018-05-23T11:22:32.575Z,23.20
2018-05-23T11:25:00.137Z,23.20
2018-05-23T11:27:27.593Z,23.20
2018-05-23T11:29:55.067Z,23.30
2018-05-23T11:32:23.299Z,23.60
2018-05-23T11:34:50.766Z,23.60
2018-05-23T11:37:19.005Z,24.00
2018-05-23T11:39:46.486Z,23.90
2018-05-23T11:42:13.947Z,24.10
2018-05-23T11:44:41.437Z,24.30
2018-05-23T11:47:09.663Z,24.50
2018-05-23T11:49:37.295Z,24.50
2018-05-23T11:52:04.804Z,24.60
2018-05-23T11:54:32.250Z,24.60
2018-05-23T11:56:59.721Z,24.70
2018-05-23T11:59:27.265Z,24.80
2018-05-23T12:01:54.734Z,25.00
2018-05-23T12:04:22.203Z,25.20
2018-05-23T12:06:49.755Z,25.30
2018-05-23T12:09:17.202Z,25.50
2018-05-23T12:11:44.684Z,25.60
2018-05-23T12:14:12.913Z,25.80
2018-05-23T12:16:40.370Z,25.70
2018-05-23T12:19:07.828Z,25.90
2018-05-23T12:21:35.324Z,26.00
2018-05-23T12:24:03.558Z,26.20
2018-05-23T12:26:31.040Z,26.20
2018-05-23T12:28:58.471Z,26.30
2018-05-23T12:31:25.946Z,26.40
2018-05-23T12:33:53.405Z,26.50
2018-05-23T12:36:20.890Z,26.70
2018-05-23T12:38:49.134Z,26.90
2018-05-23T12:41:16.607Z,26.80
2018-05-23T12:43:44.052Z,26.90
2018-05-23T12:46:11.546Z,27.00
2018-05-23T12:48:39.000Z,26.90
2018-05-23T12:51:06.462Z,26.80
2018-05-23T12:53:33.937Z,26.90
2018-05-23T12:56:01.396Z,26.80
2018-05-23T12:58:28.867Z,26.70
2018-05-23T13:00:56.318Z,26.70
2018-05-23T13:03:23.822Z,26.70
2018-05-23T13:05:51.266Z,26.60
2018-05-23T13:08:18.761Z,26.80
2018-05-23T13:10:46.223Z,26.90
2018-05-23T13:13:13.727Z,27.10
2018-05-23T13:15:41.199Z,27.20
2018-05-23T13:18:09.450Z,27.40
2018-05-23T13:20:36.942Z,27.40
2018-05-23T13:23:05.220Z,27.50
2018-05-23T13:25:32.751Z,27.50
2018-05-23T13:28:00.367Z,27.50
2018-05-23T13:30:27.816Z,27.40
2018-05-23T13:32:55.277Z,27.40
2018-05-23T13:35:22.779Z,27.50
2018-05-23T13:37:50.232Z,27.60
2018-05-23T13:40:17.727Z,27.70
2018-05-23T13:42:45.953Z,27.80
2018-05-23T13:45:13.434Z,27.80
2018-05-23T13:47:41.650Z,27.90
2018-05-23T13:50:09.134Z,27.90
2018-05-23T13:52:36.590Z,28.00
2018-05-23T13:55:04.121Z,28.00
2018-05-23T13:57:31.522Z,28.10
2018-05-23T13:59:59.032Z,28.10
2018-05-23T14:02:26.486Z,28.00
2018-05-23T14:04:53.973Z,27.90
2018-05-23T14:07:21.535Z,27.90
2018-05-23T14:09:49.055Z,27.80
2018-05-23T14:12:16.497Z,27.80
2018-05-23T14:14:43.972Z,27.80
2018-05-23T14:17:11.448Z,27.80
2018-05-23T14:19:38.911Z,27.70
2018-05-23T14:22:06.482Z,27.70
2018-05-23T14:24:33.941Z,27.70
2018-05-23T14:27:01.472Z,27.80
2018-05-23T14:29:28.921Z,27.80
2018-05-23T14:31:56.425Z,27.90
2018-05-23T14:34:23.894Z,28.00
2018-05-23T14:36:51.355Z,28.00
2018-05-23T14:39:19.592Z,28.00
2018-05-23T14:41:47.102Z,28.00
2018-05-23T14:44:14.580Z,28.00
2018-05-23T14:46:42.038Z,28.00
2018-05-23T14:49:09.541Z,28.00
2018-05-23T14:51:37.007Z,28.00
2018-05-23T14:54:05.275Z,28.00
2018-05-23T14:56:33.503Z,28.00
2018-05-23T14:59:01.007Z,28.00
2018-05-23T15:01:28.452Z,27.90
2018-05-23T15:03:55.962Z,28.00
2018-05-23T15:06:23.433Z,27.90
2018-05-23T15:08:50.898Z,27.90
2018-05-23T15:11:18.378Z,27.90
2018-05-23T15:13:45.901Z,27.90
2018-05-23T15:16:13.353Z,27.80
2018-05-23T15:18:40.841Z,27.60
2018-05-23T15:21:08.316Z,27.50
2018-05-23T15:23:35.772Z,27.60
2018-05-23T15:26:03.250Z,27.60
2018-05-23T15:28:31.475Z,27.70
2018-05-23T15:30:58.947Z,27.70
2018-05-23T15:33:26.463Z,27.70
2018-05-23T15:35:53.954Z,27.70
2018-05-23T15:38:21.407Z,27.70
2018-05-23T15:40:48.884Z,27.70
2018-05-23T15:43:16.426Z,27.70
2018-05-23T15:45:43.909Z,27.70
2018-05-23T15:48:12.143Z,27.70
2018-05-23T15:50:39.646Z,27.70
2018-05-23T15:53:07.899Z,27.60
2018-05-23T15:55:35.375Z,27.60
2018-05-23T15:58:03.612Z,27.60
2018-05-23T16:00:31.073Z,27.60
2018-05-23T16:02:58.609Z,27.60
2018-05-23T16:05:26.051Z,27.60
2018-05-23T16:07:54.350Z,27.60
2018-05-23T16:10:21.820Z,27.60
2018-05-23T16:12:49.325Z,27.60
2018-05-23T16:15:17.594Z,27.60
2018-05-23T16:17:45.845Z,27.70
2018-05-23T16:20:13.322Z,27.60
2018-05-23T16:22:41.565Z,27.60
2018-05-23T16:25:09.071Z,27.60
2018-05-23T16:27:36.527Z,27.60
2018-05-23T16:30:04.015Z,27.50
2018-05-23T16:32:31.497Z,27.50
2018-05-23T16:34:58.993Z,27.40
2018-05-23T16:37:26.506Z,27.40
2018-05-23T16:39:53.939Z,27.40
2018-05-23T16:42:21.537Z,27.30
2018-05-23T16:44:48.970Z,27.40
2018-05-23T16:47:16.460Z,27.30
2018-05-23T16:49:44.694Z,27.30
2018-05-23T16:52:12.199Z,27.20
2018-05-23T16:54:40.439Z,27.20
2018-05-23T16:57:07.944Z,27.20
2018-05-23T16:59:35.398Z,27.10
2018-05-23T17:02:03.224Z,27.00
2018-05-23T17:04:30.680Z,26.90
2018-05-23T17:06:58.156Z,26.90
2018-05-23T17:09:26.393Z,26.80
2018-05-23T17:11:53.891Z,26.80
2018-05-23T17:14:22.127Z,26.70
2018-05-23T17:16:49.584Z,26.80
2018-05-23T17:19:17.075Z,26.80
2018-05-23T17:21:45.305Z,26.70
2018-05-23T17:24:12.772Z,26.70
2018-05-23T17:26:40.263Z,26.70
2018-05-23T17:29:08.504Z,26.50
2018-05-23T17:31:35.974Z,26.50
2018-05-23T17:34:03.439Z,26.50
2018-05-23T17:36:31.681Z,26.30
2018-05-23T17:38:59.164Z,26.30
2018-05-23T17:41:26.607Z,26.30
2018-05-23T17:43:54.105Z,26.20
2018-05-23T17:46:22.302Z,26.10
2018-05-23T17:48:49.930Z,26.10
2018-05-23T17:51:18.136Z,26.10
2018-05-23T17:53:45.645Z,26.00
2018-05-23T17:56:13.899Z,26.00
2018-05-23T17:58:41.365Z,26.00
2018-05-23T18:01:08.847Z,26.00
2018-05-23T18:03:37.168Z,26.00
2018-05-23T18:06:04.705Z,26.00
2018-05-23T18:08:32.134Z,25.90
2018-05-23T18:11:00.485Z,25.90
2018-05-23T18:13:27.950Z,25.80
2018-05-23T18:15:55.530Z,25.80
2018-05-23T18:18:23.781Z,25.60
2018-05-23T18:20:51.251Z,25.60
2018-05-23T18:23:18.718Z,25.60
2018-05-23T18:25:46.977Z,25.30
2018-05-23T18:28:14.497Z,25.30
2018-05-23T18:30:41.953Z,25.20
2018-05-23T18:33:09.426Z,25.10
2018-05-23T18:35:36.931Z,25.00
2018-05-23T18:38:05.207Z,24.80
2018-05-23T18:40:33.456Z,24.70
2018-05-23T18:43:01.015Z,24.70
2018-05-23T18:45:28.511Z,24.70
2018-05-23T18:47:56.027Z,24.80
2018-05-23T18:50:23.508Z,24.80
2018-05-23T18:52:51.755Z,24.80
2018-05-23T18:55:19.244Z,24.80
2018-05-23T18:57:47.515Z,24.70
2018-05-23T19:00:15.768Z,24.60
2018-05-23T19:02:43.323Z,24.60
2018-05-23T19:05:10.808Z,24.60
2018-05-23T19:07:38.277Z,24.60
2018-05-23T19:10:05.795Z,24.50
2018-05-23T19:12:33.257Z,24.50
2018-05-23T19:15:00.758Z,24.60
2018-05-23T19:17:28.235Z,24.50
2018-05-23T19:19:55.889Z,24.60
2018-05-23T19:22:24.008Z,24.50
2018-05-23T19:24:51.492Z,24.50
2018-05-23T19:27:19.015Z,24.50
2018-05-23T19:29:46.476Z,24.50
2018-05-23T19:32:14.747Z,24.40
2018-05-23T19:34:42.297Z,24.40
2018-05-23T19:37:09.767Z,24.40
2018-05-23T19:39:38.050Z,24.40
2018-05-23T19:42:06.324Z,24.30
2018-05-23T19:44:34.567Z,24.30
2018-05-23T19:47:02.131Z,24.30
2018-05-23T19:49:29.603Z,24.30
2018-05-23T19:51:57.157Z,24.30
2018-05-23T19:54:24.644Z,24.20
2018-05-23T19:56:52.149Z,24.20
2018-05-23T19:59:19.635Z,24.10
2018-05-23T20:01:47.119Z,24.10
2018-05-23T20:04:15.375Z,24.00
2018-05-23T20:06:42.919Z,24.00
2018-05-23T20:09:10.378Z,23.90
2018-05-23T20:11:37.931Z,23.90
2018-05-23T20:14:05.513Z,23.80
2018-05-23T20:16:33.682Z,23.80
2018-05-23T20:19:01.959Z,23.80
2018-05-23T20:21:29.520Z,23.70
2018-05-23T20:23:57.798Z,23.60
2018-05-23T20:26:27.229Z,23.50
2018-05-23T20:28:54.721Z,23.50
2018-05-23T20:31:22.164Z,23.40
2018-05-23T20:33:49.634Z,23.30
2018-05-23T20:36:17.097Z,23.30
2018-05-23T20:38:44.572Z,23.20
2018-05-23T20:41:12.855Z,23.10
2018-05-23T20:43:41.218Z,23.10
2018-05-23T20:46:08.710Z,23.00
2018-05-23T20:48:36.190Z,23.00
2018-05-23T20:51:03.656Z,22.90
2018-05-23T20:53:31.152Z,22.90
2018-05-23T20:55:59.385Z,22.80
2018-05-23T20:58:26.989Z,22.80
2018-05-23T21:00:55.127Z,22.70
2018-05-23T21:03:22.577Z,22.70
2018-05-23T21:05:50.068Z,22.70
2018-05-23T21:08:19.266Z,22.60
2018-05-23T21:10:46.737Z,22.60
2018-05-23T21:13:14.284Z,22.60
2018-05-23T21:15:42.552Z,22.50
2018-05-23T21:18:10.894Z,22.50
2018-05-23T21:20:38.398Z,22.50
2018-05-23T21:23:06.663Z,22.30
2018-05-23T21:25:34.141Z,22.30
2018-05-23T21:28:01.610Z,22.20
2018-05-23T21:30:29.099Z,22.20
2018-05-23T21:32:56.556Z,22.20
2018-05-23T21:35:24.081Z,22.20
2018-05-23T21:37:51.565Z,22.10
2018-05-23T21:40:19.052Z,22.10
2018-05-23T21:42:48.045Z,22.00
2018-05-23T21:45:15.519Z,22.00
2018-05-23T21:47:43.788Z,22.00
2018-05-23T21:50:11.319Z,22.00
2018-05-23T21:52:38.842Z,22.00
2018-05-23T21:55:06.301Z,22.00
2018-05-23T21:57:33.774Z,22.00
2018-05-23T22:00:01.266Z,21.90
2018-05-23T22:02:29.546Z,21.90
2018-05-23T22:04:57.774Z,21.90
2018-05-23T22:07:25.286Z,21.90
2018-05-23T22:09:53.528Z,21.90
2018-05-23T22:12:21.006Z,21.90
2018-05-23T22:14:48.482Z,21.90
2018-05-23T22:17:16.025Z,21.90
2018-05-23T22:19:43.503Z,21.90
2018-05-23T22:22:10.959Z,21.90
2018-05-23T22:24:38.477Z,21.90
2018-05-23T22:27:05.955Z,21.80
2018-05-23T22:29:33.510Z,21.80
2018-05-23T22:32:01.041Z,21.80
2018-05-23T22:34:28.531Z,21.80
2018-05-23T22:36:56.761Z,21.70
2018-05-23T22:39:24.279Z,21.70
2018-05-23T22:41:52.525Z,21.70
2018-05-23T22:44:19.993Z,21.70
2018-05-23T22:46:48.227Z,21.60
2018-05-23T22:49:15.690Z,21.60
2018-05-23T22:51:43.199Z,21.50
2018-05-23T22:54:10.648Z,21.50
2018-05-23T22:56:38.903Z,21.40
2018-05-23T22:59:06.438Z,21.40
2018-05-23T23:01:33.922Z,21.30
2018-05-23T23:04:01.399Z,21.30
2018-05-23T23:06:28.863Z,21.30
2018-05-23T23:08:56.383Z,21.40
2018-05-23T23:11:23.855Z,21.40
2018-05-23T23:13:52.071Z,21.40
2018-05-23T23:16:19.562Z,21.30
2018-05-23T23:18:47.048Z,21.40
2018-05-23T23:21:15.284Z,21.30
2018-05-23T23:23:42.737Z,21.30
2018-05-23T23:26:10.224Z,21.30
2018-05-23T23:28:37.686Z,21.30
2018-05-23T23:31:05.910Z,21.20
2018-05-23T23:33:33.389Z,21.20
2018-05-23T23:36:00.847Z,21.20
2018-05-23T23:38:28.340Z,21.20
2018-05-23T23:40:55.796Z,21.20
2018-05-23T23:43:23.319Z,21.10
2018-05-23T23:45:50.949Z,21.10
2018-05-23T23:48:18.310Z,21.10
2018-05-23T23:50:45.762Z,21.00
2018-05-23T23:53:13.251Z,20.90
2018-05-23T23:55:40.726Z,20.90
2018-05-23T23:58:08.943Z,20.90
